Time;durP1;ratioP1;P1;durP2;ratioP2;P2;SDS_P1;SDS_P2;PMS_P1;PMS_P2;Temp;Humidity;BMP_temperature;BMP_pressure;BME280_temperature;BME280_humidity;BME280_pressure;Samples;Min_cycle;Max_cycle;Signal;HPM_P1;HPM_P2
2022/07/21 00:01:49;;;;;;;9.07;5.13;;;20.80;99.90;;;;;;5036448;28;20033;-68
2022/07/21 00:04:15;;;;;;;12.10;5.22;;;20.80;99.90;;;;;;5037400;28;20490;-68
2022/07/21 00:06:44;;;;;;;8.55;4.70;;;20.90;99.90;;;;;;5020622;28;20045;-68
2022/07/21 00:09:11;;;;;;;8.23;5.03;;;20.90;99.90;;;;;;5036830;28;20561;-68
2022/07/21 00:11:37;;;;;;;11.48;5.45;;;20.90;99.90;;;;;;5034110;28;20037;-68
2022/07/21 00:14:04;;;;;;;10.05;5.70;;;20.90;99.90;;;;;;5037209;28;20443;-68
2022/07/21 00:16:30;;;;;;;10.63;5.53;;;20.90;99.90;;;;;;5036976;28;20148;-68
2022/07/21 00:18:55;;;;;;;13.27;6.25;;;21.00;99.90;;;;;;5037228;28;20127;-68
2022/07/21 00:21:21;;;;;;;12.98;6.10;;;21.00;99.90;;;;;;5034581;28;20045;-68
2022/07/21 00:23:47;;;;;;;10.77;6.05;;;20.90;99.90;;;;;;5019431;28;20408;-69
2022/07/21 00:26:12;;;;;;;10.65;5.90;;;20.90;99.90;;;;;;5036819;28;20036;-69
2022/07/21 00:28:38;;;;;;;12.23;6.25;;;20.90;99.90;;;;;;5035695;28;20131;-68
2022/07/21 00:31:04;;;;;;;10.30;6.00;;;20.90;99.90;;;;;;5032740;28;20132;-68
2022/07/21 00:33:29;;;;;;;10.73;5.88;;;20.90;99.90;;;;;;5035887;28;20041;-68
2022/07/21 00:35:55;;;;;;;11.98;6.13;;;20.90;99.90;;;;;;5034950;28;20044;-68
2022/07/21 00:38:21;;;;;;;11.40;6.57;;;20.90;99.90;;;;;;5020061;28;20041;-68
2022/07/21 00:40:46;;;;;;;11.32;5.97;;;20.80;99.90;;;;;;5036813;28;20076;-68
2022/07/21 00:43:12;;;;;;;12.57;6.25;;;20.80;99.90;;;;;;5018605;28;20119;-69
2022/07/21 00:45:38;;;;;;;13.63;6.68;;;20.80;99.90;;;;;;5036720;28;20041;-69
2022/07/21 00:48:04;;;;;;;12.10;6.43;;;20.80;99.90;;;;;;5036402;28;20524;-70
2022/07/21 00:50:32;;;;;;;12.23;6.43;;;20.90;99.90;;;;;;5036142;28;20049;-70
2022/07/21 00:52:58;;;;;;;10.65;6.25;;;20.70;99.90;;;;;;5018951;28;20036;-70
2022/07/21 00:55:24;;;;;;;13.82;7.25;;;20.70;99.90;;;;;;5036112;28;20033;-70
2022/07/21 00:57:51;;;;;;;13.43;7.05;;;20.70;99.90;;;;;;5027953;28;20037;-70
2022/07/21 01:00:23;;;;;;;13.25;7.22;;;20.70;99.90;;;;;;5017361;28;20066;-70
2022/07/21 01:02:49;;;;;;;13.05;6.93;;;20.70;99.90;;;;;;5018081;28;20440;-70
2022/07/21 01:05:15;;;;;;;13.43;6.90;;;20.80;99.90;;;;;;5036182;28;20049;-70
2022/07/21 01:07:43;;;;;;;11.68;6.95;;;20.70;99.90;;;;;;5018834;28;20066;-70
2022/07/21 01:10:12;;;;;;;12.80;7.53;;;20.70;99.90;;;;;;5018735;28;20430;-70
2022/07/21 01:12:38;;;;;;;12.35;7.38;;;20.70;99.90;;;;;;5018541;28;20505;-70
2022/07/21 01:15:06;;;;;;;12.23;7.63;;;20.70;99.90;;;;;;5036107;28;20045;-70
2022/07/21 01:17:32;;;;;;;10.80;7.45;;;20.60;99.90;;;;;;5018601;28;20036;-70
2022/07/21 01:20:05;;;;;;;12.82;7.88;;;20.70;99.90;;;;;;5034567;28;20037;-70
2022/07/21 01:22:33;;;;;;;12.95;7.80;;;20.80;99.90;;;;;;5034708;28;20052;-70
2022/07/21 01:24:58;;;;;;;10.77;7.38;;;20.70;99.90;;;;;;5019150;28;20079;-70
2022/07/21 01:27:28;;;;;;;13.23;8.10;;;20.60;99.90;;;;;;5034904;28;20496;-70
2022/07/21 01:29:55;;;;;;;15.18;7.90;;;20.60;99.90;;;;;;5034630;28;20040;-70
2022/07/21 01:32:21;;;;;;;11.52;7.95;;;20.60;99.90;;;;;;5033872;28;20052;-70
2022/07/21 01:34:47;;;;;;;12.27;8.45;;;20.60;99.90;;;;;;5035450;28;20044;-70
2022/07/21 01:37:13;;;;;;;13.43;8.23;;;20.50;99.90;;;;;;5034875;28;20032;-70
2022/07/21 01:42:23;;;;;;;13.05;8.80;;;20.50;99.90;;;;;;5034527;28;20501;-69
2022/07/21 01:44:49;;;;;;;12.52;8.50;;;20.60;99.90;;;;;;5034680;28;20167;-70
2022/07/21 01:47:17;;;;;;;14.75;8.82;;;20.60;99.90;;;;;;5034610;28;20516;-70
2022/07/21 01:49:43;;;;;;;12.98;8.25;;;20.50;99.90;;;;;;5035295;28;20120;-69
2022/07/21 01:52:09;;;;;;;15.50;9.30;;;20.50;99.90;;;;;;5034328;28;20041;-68
2022/07/21 01:54:36;;;;;;;15.48;10.18;;;20.40;99.90;;;;;;5019023;28;20166;-68
2022/07/21 01:57:02;;;;;;;15.05;10.13;;;20.40;99.90;;;;;;5018399;28;20371;-68
2022/07/21 01:59:28;;;;;;;15.80;10.10;;;20.30;99.90;;;;;;5034354;28;20094;-68
2022/07/21 02:01:53;;;;;;;13.30;9.23;;;20.30;99.90;;;;;;5034197;28;20404;-68
2022/07/21 02:04:19;;;;;;;12.73;8.65;;;20.20;99.90;;;;;;5035191;28;20041;-68
2022/07/21 02:06:45;;;;;;;12.50;8.48;;;20.20;99.90;;;;;;5034436;28;20040;-68
2022/07/21 02:09:11;;;;;;;13.27;8.50;;;20.20;99.90;;;;;;5034230;28;20562;-67
2022/07/21 02:11:37;;;;;;;13.20;8.30;;;20.30;99.90;;;;;;5033921;28;20037;-68
2022/07/21 02:14:03;;;;;;;11.93;8.35;;;20.30;99.90;;;;;;5032013;28;20047;-67
2022/07/21 02:16:29;;;;;;;11.90;8.43;;;20.30;99.90;;;;;;4999195;28;20042;-67
2022/07/21 02:18:55;;;;;;;15.20;9.32;;;20.40;99.90;;;;;;5015572;28;20375;-68
2022/07/21 02:21:21;;;;;;;16.05;8.70;;;20.50;99.90;;;;;;4999668;28;20042;-68
2022/07/21 02:23:46;;;;;;;16.38;9.15;;;20.50;99.90;;;;;;5035052;28;20076;-68
2022/07/21 02:26:12;;;;;;;12.10;9.27;;;20.50;99.90;;;;;;5018150;28;20405;-67
2022/07/21 02:28:38;;;;;;;13.27;9.00;;;20.50;99.90;;;;;;5034874;28;20072;-68
2022/07/21 02:31:04;;;;;;;14.05;9.30;;;20.40;99.90;;;;;;5031240;28;20183;-68
2022/07/21 02:33:30;;;;;;;16.10;10.02;;;20.40;99.90;;;;;;5032516;28;20549;-68
2022/07/21 02:35:55;;;;;;;18.42;10.52;;;20.30;99.90;;;;;;5018563;28;20488;-68
2022/07/21 02:38:21;;;;;;;13.45;9.30;;;20.10;99.90;;;;;;5018499;28;20037;-67
2022/07/21 02:40:47;;;;;;;13.00;9.60;;;19.90;99.90;;;;;;5018390;28;20029;-68
2022/07/21 02:43:12;;;;;;;14.60;9.88;;;19.70;99.90;;;;;;5015061;28;21493;-68
2022/07/21 02:45:39;;;;;;;13.25;9.77;;;19.80;99.90;;;;;;5030629;28;20131;-68
2022/07/21 02:48:07;;;;;;;13.38;10.00;;;19.80;99.90;;;;;;5021341;28;20041;-68
2022/07/21 02:50:35;;;;;;;13.07;9.70;;;19.80;99.90;;;;;;5038105;28;20040;-68
2022/07/21 02:53:05;;;;;;;14.18;10.13;;;19.90;99.90;;;;;;5019778;28;20037;-68
2022/07/21 02:55:31;;;;;;;14.38;10.00;;;19.90;99.90;;;;;;5021541;28;20060;-68
2022/07/21 02:58:11;;;;;;;13.48;10.13;;;20.00;99.90;;;;;;5038801;28;20485;-68
2022/07/21 03:00:40;;;;;;;15.38;11.10;;;20.10;99.90;;;;;;5036212;28;20041;-68
2022/07/21 03:03:07;;;;;;;16.27;11.23;;;20.10;99.90;;;;;;5019779;28;20478;-68
2022/07/21 03:05:34;;;;;;;14.65;10.45;;;20.30;99.90;;;;;;5018046;28;20056;-68
2022/07/21 03:07:59;;;;;;;15.02;10.10;;;20.40;99.90;;;;;;5035718;28;20048;-69
2022/07/21 03:10:25;;;;;;;14.23;10.63;;;20.30;99.90;;;;;;5035176;28;20048;-68
2022/07/21 03:12:51;;;;;;;12.55;9.60;;;20.30;99.90;;;;;;5034024;28;20033;-68
2022/07/21 03:15:16;;;;;;;12.88;9.50;;;20.30;99.90;;;;;;5021492;28;20041;-68
2022/07/21 03:17:42;;;;;;;13.10;9.25;;;20.30;99.90;;;;;;5020766;28;20041;-68
2022/07/21 03:20:08;;;;;;;12.85;9.85;;;20.20;99.90;;;;;;5038182;28;20075;-68
2022/07/21 03:22:34;;;;;;;11.68;9.05;;;20.20;99.90;;;;;;5020901;28;20571;-68
2022/07/21 03:25:00;;;;;;;12.88;8.90;;;20.20;99.90;;;;;;5020915;28;20076;-68
2022/07/21 03:27:25;;;;;;;11.45;8.38;;;20.10;99.90;;;;;;5034986;28;20060;-68
2022/07/21 03:29:51;;;;;;;13.43;9.35;;;20.10;99.90;;;;;;5018682;28;20124;-68
2022/07/21 03:32:16;;;;;;;13.07;9.30;;;20.00;99.90;;;;;;5037258;28;20052;-68
2022/07/21 03:34:44;;;;;;;11.30;8.07;;;19.90;99.90;;;;;;5019795;28;20041;-68
2022/07/21 03:37:10;;;;;;;11.73;8.43;;;20.00;99.90;;;;;;5035581;28;20064;-68
2022/07/21 03:39:36;;;;;;;12.45;8.57;;;20.00;99.90;;;;;;5019686;28;20095;-67
2022/07/21 03:42:01;;;;;;;12.40;9.02;;;20.00;99.90;;;;;;5020428;28;20041;-68
2022/07/21 03:44:27;;;;;;;14.88;9.32;;;20.10;99.90;;;;;;5019937;28;20386;-68
2022/07/21 03:46:52;;;;;;;11.75;9.18;;;20.10;99.90;;;;;;5035553;28;20064;-68
2022/07/21 03:49:18;;;;;;;13.52;9.50;;;20.10;99.90;;;;;;5032793;28;20391;-68
2022/07/21 03:51:43;;;;;;;13.95;9.82;;;20.20;99.90;;;;;;5018383;28;20041;-68
2022/07/21 03:54:09;;;;;;;13.27;9.73;;;20.20;99.90;;;;;;5036033;28;20076;-68
2022/07/21 03:56:35;;;;;;;11.73;10.18;;;20.20;99.90;;;;;;5035077;28;20086;-68
2022/07/21 03:59:00;;;;;;;11.98;8.60;;;20.20;99.90;;;;;;5036448;28;20032;-68
2022/07/21 04:01:26;;;;;;;13.20;10.00;;;20.10;99.90;;;;;;5035378;28;20081;-68
2022/07/21 04:03:51;;;;;;;13.15;9.80;;;20.10;99.90;;;;;;5020597;28;20048;-67
2022/07/21 04:06:17;;;;;;;13.85;10.43;;;20.20;99.90;;;;;;5035131;28;20056;-67
2022/07/21 04:08:42;;;;;;;14.55;10.52;;;20.20;99.90;;;;;;5017416;28;20455;-68
2022/07/21 04:11:08;;;;;;;12.45;10.02;;;20.20;99.90;;;;;;5036909;28;20080;-68
2022/07/21 04:13:34;;;;;;;13.00;9.98;;;20.20;99.90;;;;;;5051491;28;20048;-68
2022/07/21 04:15:59;;;;;;;11.63;9.80;;;20.20;99.90;;;;;;5034285;28;20433;-67
2022/07/21 04:18:25;;;;;;;12.85;10.30;;;20.20;99.90;;;;;;5033711;28;20037;-68
2022/07/21 04:20:50;;;;;;;13.13;10.13;;;20.20;99.90;;;;;;5020010;28;20037;-68
2022/07/21 04:23:16;;;;;;;13.60;9.82;;;20.20;99.90;;;;;;5035449;28;20052;-68
2022/07/21 04:25:42;;;;;;;13.27;10.15;;;20.10;99.90;;;;;;5034300;28;20112;-68
2022/07/21 04:28:07;;;;;;;14.60;11.05;;;20.20;99.90;;;;;;5032981;28;20045;-68
2022/07/21 04:30:33;;;;;;;13.25;11.02;;;20.10;99.90;;;;;;5012935;28;20477;-67
2022/07/21 04:32:59;;;;;;;13.43;11.30;;;20.10;99.90;;;;;;5018780;28;20037;-67
2022/07/21 04:35:25;;;;;;;15.48;11.07;;;20.10;99.90;;;;;;5023832;28;20034;-68
2022/07/21 04:37:50;;;;;;;13.77;10.80;;;20.10;99.90;;;;;;5019002;28;20047;-68
2022/07/21 04:40:17;;;;;;;14.85;10.68;;;20.20;99.90;;;;;;5019300;28;20071;-67
2022/07/21 04:42:43;;;;;;;15.40;11.35;;;20.20;99.90;;;;;;5042244;28;20382;-68
2022/07/21 04:45:11;;;;;;;15.75;12.70;;;20.20;99.90;;;;;;5018288;28;20073;-67
2022/07/21 04:47:43;;;;;;;16.52;13.07;;;20.10;99.90;;;;;;5018400;28;20521;-67
2022/07/21 04:50:10;;;;;;;15.63;13.88;;;20.10;99.90;;;;;;5033920;28;20044;-68
2022/07/21 04:52:35;;;;;;;17.77;14.63;;;20.10;99.90;;;;;;5033870;28;20382;-67
2022/07/21 04:55:01;;;;;;;18.05;16.15;;;20.10;99.90;;;;;;5018087;28;20040;-67
2022/07/21 04:57:26;;;;;;;20.77;17.20;;;20.20;99.90;;;;;;5017980;28;20076;-67
2022/07/21 04:59:52;;;;;;;19.42;16.58;;;20.20;99.90;;;;;;5018336;28;20037;-67
2022/07/21 05:02:18;;;;;;;22.17;18.50;;;20.20;99.90;;;;;;5032125;28;20505;-67
2022/07/21 05:04:43;;;;;;;22.77;19.27;;;20.20;99.90;;;;;;5026653;28;21191;-68
2022/07/21 05:07:09;;;;;;;22.02;19.02;;;20.20;99.90;;;;;;5032038;28;20046;-68
2022/07/21 05:09:35;;;;;;;23.58;20.17;;;20.30;99.90;;;;;;5034553;28;20048;-67
2022/07/21 05:12:01;;;;;;;23.92;20.75;;;20.30;99.90;;;;;;5032875;28;20041;-68
2022/07/21 05:14:26;;;;;;;25.20;20.38;;;20.30;99.90;;;;;;5034328;28;20045;-67
2022/07/21 05:16:52;;;;;;;23.90;21.38;;;20.20;99.90;;;;;;5033238;28;20043;-67
2022/07/21 05:19:18;;;;;;;22.77;20.38;;;20.30;99.90;;;;;;5035063;28;20112;-67
2022/07/21 05:21:45;;;;;;;24.55;21.92;;;20.20;99.90;;;;;;5018558;28;20071;-67
2022/07/21 05:24:10;;;;;;;24.00;20.60;;;20.20;99.90;;;;;;5034036;28;20040;-67
2022/07/21 05:26:36;;;;;;;25.02;21.45;;;20.30;99.90;;;;;;5034703;28;20493;-67
2022/07/21 05:29:02;;;;;;;23.77;21.27;;;20.30;99.90;;;;;;5017330;28;20116;-67
2022/07/21 05:31:28;;;;;;;25.25;22.65;;;20.30;99.90;;;;;;5014068;28;20481;-67
2022/07/21 05:33:53;;;;;;;23.00;20.55;;;20.30;99.90;;;;;;5036386;28;20048;-67
2022/07/21 05:36:19;;;;;;;23.80;21.23;;;20.40;99.90;;;;;;5032605;28;20033;-67
2022/07/21 05:38:45;;;;;;;24.65;21.80;;;20.30;99.90;;;;;;5018430;28;20037;-67
2022/07/21 05:41:11;;;;;;;26.13;22.50;;;20.40;99.90;;;;;;5039540;28;20477;-67
2022/07/21 05:43:36;;;;;;;25.48;22.77;;;20.50;99.90;;;;;;5034526;28;20485;-68
2022/07/21 05:46:02;;;;;;;24.23;21.52;;;20.50;99.90;;;;;;5018941;28;20106;-67
2022/07/21 05:48:27;;;;;;;25.33;22.63;;;20.50;99.90;;;;;;5050464;28;20114;-67
2022/07/21 05:50:53;;;;;;;24.58;22.08;;;20.40;99.90;;;;;;5015080;28;20040;-67
2022/07/21 05:53:19;;;;;;;23.95;21.45;;;20.50;99.90;;;;;;5034350;28;20444;-71
2022/07/21 05:55:44;;;;;;;23.50;21.00;;;20.50;99.90;;;;;;5019846;28;20147;-67
2022/07/21 05:58:11;;;;;;;25.58;22.63;;;20.50;99.90;;;;;;5034219;28;20473;-67
2022/07/21 06:00:37;;;;;;;26.15;23.50;;;20.60;99.90;;;;;;5040910;28;20052;-67
2022/07/21 06:03:03;;;;;;;29.10;23.80;;;20.50;99.90;;;;;;5025130;28;20037;-67
2022/07/21 06:05:28;;;;;;;25.90;23.13;;;20.50;99.90;;;;;;5031867;28;20079;-67
2022/07/21 06:07:54;;;;;;;25.10;22.40;;;20.50;99.90;;;;;;5034403;28;20044;-67
2022/07/21 06:10:19;;;;;;;24.83;21.77;;;20.60;99.90;;;;;;5033222;28;20052;-67
2022/07/21 06:12:45;;;;;;;26.67;23.88;;;20.60;99.90;;;;;;5033105;28;20194;-67
2022/07/21 06:15:12;;;;;;;26.85;24.02;;;20.60;99.90;;;;;;5032015;28;20033;-67
2022/07/21 06:17:45;;;;;;;27.60;24.23;;;20.70;99.90;;;;;;5033746;28;20041;-67
2022/07/21 06:20:12;;;;;;;27.08;24.15;;;20.90;99.90;;;;;;5046180;28;20033;-67
2022/07/21 06:22:38;;;;;;;27.38;23.75;;;20.90;99.90;;;;;;5043308;28;20045;-67
2022/07/21 06:25:04;;;;;;;26.00;23.20;;;20.90;99.90;;;;;;5037841;28;20037;-67
2022/07/21 06:27:31;;;;;;;27.65;24.48;;;20.90;99.90;;;;;;5037094;28;20094;-67
2022/07/21 06:29:58;;;;;;;26.90;24.08;;;20.90;99.90;;;;;;5022655;28;20056;-67
2022/07/21 06:32:25;;;;;;;26.30;23.48;;;20.80;99.90;;;;;;5036878;28;20574;-67
2022/07/21 06:34:50;;;;;;;26.45;23.65;;;20.80;99.90;;;;;;5036063;28;20041;-67
2022/07/21 06:37:16;;;;;;;26.70;23.83;;;20.80;99.90;;;;;;5037855;28;20044;-67
2022/07/21 06:39:42;;;;;;;26.52;23.67;;;20.80;99.90;;;;;;5022539;28;20033;-67
2022/07/21 06:42:08;;;;;;;25.80;22.70;;;20.90;99.90;;;;;;5019324;28;20028;-67
2022/07/21 06:44:34;;;;;;;24.50;21.85;;;20.80;99.90;;;;;;5038113;28;20045;-67
2022/07/21 06:47:04;;;;;;;24.67;22.08;;;20.90;99.90;;;;;;5036827;28;20420;-67
2022/07/21 06:49:31;;;;;;;24.00;21.50;;;20.90;99.90;;;;;;5034665;28;20420;-67
2022/07/21 06:51:56;;;;;;;24.40;21.55;;;20.90;99.90;;;;;;5019458;28;20504;-67
2022/07/21 06:54:22;;;;;;;23.67;21.13;;;20.80;99.90;;;;;;5036285;28;20064;-67
2022/07/21 06:56:48;;;;;;;24.42;22.00;;;20.80;99.90;;;;;;5038147;28;20378;-68
2022/07/21 06:59:13;;;;;;;23.27;20.77;;;20.80;99.90;;;;;;5037190;28;20033;-67
2022/07/21 07:01:39;;;;;;;24.15;21.55;;;20.80;99.90;;;;;;5037139;28;20092;-67
2022/07/21 07:04:04;;;;;;;23.58;21.17;;;20.70;99.90;;;;;;5033429;28;20063;-67
2022/07/21 07:06:30;;;;;;;23.13;20.67;;;20.70;99.90;;;;;;5036355;28;20036;-67
2022/07/21 07:08:56;;;;;;;23.48;20.85;;;20.70;99.90;;;;;;5037290;28;20065;-67
2022/07/21 07:11:21;;;;;;;24.70;22.15;;;20.70;99.90;;;;;;5034688;28;20028;-68
2022/07/21 07:13:47;;;;;;;23.45;21.05;;;20.60;99.90;;;;;;5032864;28;20033;-67
2022/07/21 07:16:13;;;;;;;22.98;20.58;;;20.60;99.90;;;;;;5022019;28;20036;-67
2022/07/21 07:18:39;;;;;;;24.45;21.88;;;20.60;99.90;;;;;;5019857;28;20559;-67
2022/07/21 07:21:04;;;;;;;25.65;22.45;;;20.60;99.90;;;;;;5038030;28;20551;-67
2022/07/21 07:23:30;;;;;;;23.98;21.45;;;20.50;99.90;;;;;;5037556;28;20371;-67
2022/07/21 07:25:56;;;;;;;24.58;21.90;;;20.50;99.90;;;;;;5037291;28;20079;-67
2022/07/21 07:28:21;;;;;;;26.02;23.33;;;20.50;99.90;;;;;;5055012;28;20037;-67
2022/07/21 07:30:48;;;;;;;24.95;22.40;;;20.60;99.90;;;;;;5020587;28;20076;-68
2022/07/21 07:33:14;;;;;;;25.95;23.27;;;20.60;99.90;;;;;;5036705;28;20110;-68
2022/07/21 07:35:39;;;;;;;25.48;22.77;;;20.60;99.90;;;;;;5021146;28;20041;-67
2022/07/21 07:38:05;;;;;;;25.60;22.95;;;20.60;99.90;;;;;;5037405;28;20132;-67
2022/07/21 07:40:31;;;;;;;26.80;24.10;;;20.70;99.90;;;;;;5020889;28;20413;-68
2022/07/21 07:42:57;;;;;;;27.88;24.98;;;20.60;99.90;;;;;;5037181;28;20040;-68
2022/07/21 07:45:22;;;;;;;26.88;24.08;;;20.60;99.90;;;;;;5037833;28;20040;-68
2022/07/21 07:47:48;;;;;;;28.83;25.80;;;20.60;99.90;;;;;;5035581;28;20037;-68
2022/07/21 07:50:14;;;;;;;29.60;26.50;;;20.60;99.90;;;;;;5036145;28;20131;-68
2022/07/21 07:52:42;;;;;;;30.00;26.92;;;20.60;99.90;;;;;;5037355;28;20044;-68
2022/07/21 07:55:10;;;;;;;28.92;25.83;;;20.60;99.90;;;;;;5020487;28;20041;-67
2022/07/21 07:57:39;;;;;;;31.00;27.55;;;20.60;99.90;;;;;;5037161;28;20048;-68
2022/07/21 08:00:08;;;;;;;30.27;26.98;;;20.60;99.90;;;;;;5037151;28;20074;-68
2022/07/21 08:02:34;;;;;;;32.05;28.55;;;20.60;99.90;;;;;;5036927;28;20044;-68
2022/07/21 08:05:00;;;;;;;29.92;26.70;;;20.60;99.90;;;;;;5036400;28;20397;-67
2022/07/21 08:07:26;;;;;;;29.67;26.27;;;20.60;99.90;;;;;;5037078;28;20045;-67
2022/07/21 08:09:51;;;;;;;32.17;28.77;;;20.60;99.90;;;;;;5036560;28;20082;-67
2022/07/21 08:12:17;;;;;;;30.10;26.85;;;20.60;99.90;;;;;;5035212;28;20041;-67
2022/07/21 08:14:42;;;;;;;29.42;26.00;;;20.70;99.90;;;;;;5012012;28;20040;-67
2022/07/21 08:17:08;;;;;;;30.15;26.10;;;20.80;99.90;;;;;;5016767;28;20030;-68
2022/07/21 08:19:34;;;;;;;29.60;26.20;;;20.80;99.90;;;;;;5047542;28;20132;-68
2022/07/21 08:22:01;;;;;;;29.63;26.27;;;20.80;99.90;;;;;;5020175;28;20126;-67
2022/07/21 08:24:26;;;;;;;30.85;27.55;;;20.90;99.90;;;;;;5036457;28;20059;-67
2022/07/21 08:26:52;;;;;;;29.83;25.42;;;20.90;99.90;;;;;;5020075;28;20041;-67
2022/07/21 08:29:18;;;;;;;30.35;26.23;;;21.00;99.90;;;;;;5020239;28;20095;-67
2022/07/21 08:31:43;;;;;;;29.75;26.25;;;21.00;99.90;;;;;;5019562;28;20136;-68
2022/07/21 08:34:09;;;;;;;28.80;25.63;;;21.10;99.90;;;;;;5036305;28;20529;-68
2022/07/21 08:36:35;;;;;;;29.15;24.98;;;21.20;99.90;;;;;;5036524;28;20091;-68
2022/07/21 08:39:00;;;;;;;29.35;25.23;;;21.20;99.90;;;;;;5019479;28;20045;-68
2022/07/21 08:41:26;;;;;;;37.83;25.17;;;21.30;99.90;;;;;;5016567;28;20060;-68
2022/07/21 08:43:52;;;;;;;28.65;24.02;;;21.30;99.90;;;;;;5016592;28;20061;-68
2022/07/21 08:46:22;;;;;;;27.05;23.45;;;21.60;99.90;;;;;;5025120;28;20045;-68
2022/07/21 08:48:48;;;;;;;27.73;23.60;;;21.90;99.90;;;;;;5035236;28;20521;-68
2022/07/21 08:51:15;;;;;;;26.73;23.58;;;22.10;99.90;;;;;;5035171;28;20037;-68
2022/07/21 08:53:45;;;;;;;27.25;24.38;;;22.10;99.90;;;;;;5034892;28;20489;-68
2022/07/21 08:56:10;;;;;;;24.77;21.70;;;22.20;99.90;;;;;;5030500;28;20652;-68
2022/07/21 08:58:37;;;;;;;23.83;20.52;;;22.40;99.90;;;;;;5018235;28;20108;-68
2022/07/21 09:01:03;;;;;;;24.02;21.42;;;22.40;99.90;;;;;;5033911;28;20039;-68
2022/07/21 09:03:29;;;;;;;26.77;22.92;;;22.40;99.90;;;;;;5034840;28;20040;-68
2022/07/21 09:06:07;;;;;;;27.45;24.42;;;22.30;99.90;;;;;;5018147;28;20040;-68
2022/07/21 09:08:36;;;;;;;25.52;22.83;;;22.20;99.90;;;;;;5034976;28;20116;-68
2022/07/21 09:11:18;;;;;;;23.77;21.20;;;22.20;99.90;;;;;;5034734;28;20052;-68
2022/07/21 09:13:46;;;;;;;23.40;20.02;;;22.40;99.90;;;;;;5025683;28;20394;-68
2022/07/21 09:16:12;;;;;;;23.15;20.00;;;22.50;99.90;;;;;;5032177;28;20120;-68
2022/07/21 09:18:56;;;;;;;25.20;21.00;;;22.40;99.90;;;;;;5034362;28;20574;-68
2022/07/21 09:21:21;;;;;;;25.85;23.05;;;22.60;99.90;;;;;;5032749;28;20105;-68
2022/07/21 09:23:47;;;;;;;25.45;22.52;;;22.60;99.90;;;;;;5032381;28;20065;-68
2022/07/21 09:26:13;;;;;;;25.10;22.10;;;22.70;99.90;;;;;;5034074;28;20037;-68
2022/07/21 09:28:40;;;;;;;22.33;19.85;;;22.70;99.90;;;;;;5032048;28;20112;-68
2022/07/21 09:31:11;;;;;;;21.45;19.23;;;22.80;99.90;;;;;;5017185;28;20137;-68
2022/07/21 09:33:40;;;;;;;22.08;19.70;;;22.80;99.90;;;;;;5015600;28;20043;-68
2022/07/21 09:36:25;;;;;;;23.10;20.60;;;22.80;99.90;;;;;;5028370;28;20492;-68
2022/07/21 09:38:56;;;;;;;21.20;18.95;;;22.90;99.90;;;;;;5012361;28;20119;-68
2022/07/21 09:41:24;;;;;;;24.52;21.98;;;22.90;99.90;;;;;;5031203;28;20040;-68
2022/07/21 09:43:55;;;;;;;21.25;19.02;;;22.80;99.90;;;;;;5018293;28;20048;-68
2022/07/21 09:46:29;;;;;;;26.00;23.20;;;22.80;99.90;;;;;;5017191;28;20041;-68
2022/07/21 09:49:01;;;;;;;23.92;21.40;;;22.60;99.90;;;;;;5016714;28;20128;-68
2022/07/21 09:51:33;;;;;;;22.83;20.42;;;22.50;99.90;;;;;;5017379;28;20094;-68
2022/07/21 09:54:08;;;;;;;25.52;22.83;;;22.60;99.90;;;;;;5031869;28;20040;-68
2022/07/21 09:56:38;;;;;;;24.05;21.52;;;22.60;99.90;;;;;;5017280;28;20429;-68
2022/07/21 09:59:06;;;;;;;25.83;23.17;;;22.70;99.90;;;;;;5018594;28;20033;-68
2022/07/21 10:01:32;;;;;;;25.17;22.50;;;22.60;99.90;;;;;;5034548;28;20037;-68
2022/07/21 10:03:59;;;;;;;25.60;23.00;;;22.60;99.90;;;;;;5032177;28;20090;-69
2022/07/21 10:06:32;;;;;;;25.55;22.58;;;22.60;99.90;;;;;;5033844;28;20037;-68
2022/07/21 10:08:59;;;;;;;29.75;26.70;;;22.60;99.90;;;;;;5015866;28;20033;-68
2022/07/21 10:11:26;;;;;;;28.25;25.27;;;22.60;99.90;;;;;;5034743;28;20171;-69
2022/07/21 10:13:52;;;;;;;27.00;24.10;;;22.30;99.90;;;;;;5035229;28;20052;-69
2022/07/21 10:16:19;;;;;;;29.55;26.10;;;22.30;99.90;;;;;;5034705;28;20041;-69
2022/07/21 10:19:21;;;;;;;28.33;25.40;;;22.20;99.90;;;;;;5016988;28;20033;-69
2022/07/21 10:22:25;;;;;;;30.55;27.10;;;22.10;99.90;;;;;;5032669;28;20044;-68
2022/07/21 10:24:52;;;;;;;29.25;26.15;;;22.10;99.90;;;;;;5031240;28;20284;-69
2022/07/21 10:27:17;;;;;;;27.52;24.45;;;22.10;99.90;;;;;;5015132;28;20033;-69
2022/07/21 10:29:58;;;;;;;32.35;27.92;;;22.10;99.90;;;;;;5033689;28;20403;-69
2022/07/21 10:32:27;;;;;;;29.13;26.02;;;22.00;99.90;;;;;;5026673;28;20136;-69
2022/07/21 10:34:57;;;;;;;30.33;27.05;;;21.90;99.90;;;;;;5034237;28;20040;-69
2022/07/21 10:37:38;;;;;;;31.02;27.48;;;21.90;99.90;;;;;;5007482;28;20393;-69
2022/07/21 10:40:10;;;;;;;33.17;28.52;;;22.00;99.90;;;;;;5030685;28;20029;-69
2022/07/21 10:42:36;;;;;;;34.70;28.58;;;22.00;99.90;;;;;;5011982;28;20040;-69
2022/07/21 10:45:15;;;;;;;33.45;29.35;;;22.00;99.90;;;;;;5032021;28;20148;-69
2022/07/21 10:47:41;;;;;;;30.52;26.75;;;22.00;99.90;;;;;;5017678;28;20055;-69
2022/07/21 10:50:07;;;;;;;33.13;28.58;;;21.90;99.90;;;;;;5017947;28;20041;-69
2022/07/21 10:52:37;;;;;;;31.70;28.27;;;21.90;99.90;;;;;;5033316;28;20052;-69
2022/07/21 10:55:09;;;;;;;30.38;26.17;;;21.90;99.90;;;;;;5016785;28;20036;-69
2022/07/21 10:57:35;;;;;;;;;;;21.90;99.90;;;;;;5024930;28;20501;-69
2022/07/21 11:00:22;;;;;;;27.98;22.92;;;21.90;99.90;;;;;;5048487;28;19947;-69
2022/07/21 11:02:50;;;;;;;31.20;23.60;;;22.00;99.90;;;;;;5032290;28;20500;-69
2022/07/21 11:05:16;;;;;;;26.88;23.58;;;22.10;99.90;;;;;;5014531;28;20033;-69
2022/07/21 11:08:13;;;;;;;27.58;24.45;;;22.10;99.90;;;;;;5016951;28;20044;-69
2022/07/21 11:10:44;;;;;;;25.38;22.67;;;22.20;99.90;;;;;;5029251;28;20048;-69
2022/07/21 11:13:10;;;;;;;28.92;24.80;;;22.20;99.90;;;;;;5019816;28;20052;-69
2022/07/21 11:15:55;;;;;;;28.90;23.73;;;22.30;99.90;;;;;;5037584;28;20087;-69
2022/07/21 11:18:27;;;;;;;27.75;22.13;;;22.20;99.90;;;;;;5020680;28;20444;-69
2022/07/21 11:21:10;;;;;;;24.73;20.58;;;22.20;99.90;;;;;;5032328;28;20048;-69
2022/07/21 11:23:45;;;;;;;24.48;21.40;;;22.30;99.90;;;;;;5018501;28;20037;-69
2022/07/21 11:26:13;;;;;;;24.27;21.63;;;22.40;99.90;;;;;;5021648;28;20044;-69
2022/07/21 11:28:39;;;;;;;26.15;23.17;;;22.60;99.90;;;;;;5020075;28;20432;-69
2022/07/21 11:31:10;;;;;;;26.83;23.98;;;22.50;99.90;;;;;;5020074;28;20049;-69
2022/07/21 11:33:38;;;;;;;25.80;23.08;;;22.60;99.90;;;;;;5036814;28;20049;-69
2022/07/21 11:36:05;;;;;;;27.48;23.33;;;22.60;99.90;;;;;;5036742;28;20106;-69
2022/07/21 11:38:31;;;;;;;29.38;25.77;;;22.60;99.90;;;;;;5035909;28;20033;-69
2022/07/21 11:41:17;;;;;;;27.83;22.98;;;22.60;99.90;;;;;;5021034;28;20068;-69
2022/07/21 11:43:44;;;;;;;29.05;23.35;;;22.70;99.90;;;;;;5020854;28;20044;-69
2022/07/21 11:46:10;;;;;;;29.30;23.63;;;22.70;99.90;;;;;;5036846;28;20036;-69
2022/07/21 11:48:35;;;;;;;31.00;24.75;;;22.70;99.90;;;;;;5033547;28;20033;-69
2022/07/21 11:51:03;;;;;;;29.15;24.95;;;22.80;99.90;;;;;;5032592;28;20041;-69
2022/07/21 11:53:29;;;;;;;29.63;25.33;;;22.80;99.90;;;;;;5034500;28;20040;-69
2022/07/21 11:55:55;;;;;;;32.13;26.17;;;22.80;99.90;;;;;;5019559;28;20044;-69
2022/07/21 11:58:20;;;;;;;30.00;24.67;;;22.70;99.90;;;;;;5020435;28;20044;-69
2022/07/21 12:00:47;;;;;;;27.02;23.58;;;22.70;99.90;;;;;;5019277;28;20036;-69
2022/07/21 12:03:13;;;;;;;28.00;23.15;;;22.60;99.90;;;;;;5036084;28;20045;-69
2022/07/21 12:05:40;;;;;;;27.15;23.48;;;22.60;99.90;;;;;;5036496;28;20033;-69
2022/07/21 12:08:06;;;;;;;29.10;25.85;;;22.50;99.90;;;;;;5033786;28;20041;-69
2022/07/21 12:10:31;;;;;;;28.50;24.77;;;22.40;99.90;;;;;;5036748;28;20093;-68
2022/07/21 12:13:00;;;;;;;31.70;26.75;;;22.30;99.90;;;;;;5017592;28;20044;-68
2022/07/21 12:15:30;;;;;;;27.98;23.90;;;22.30;99.90;;;;;;5036510;28;20106;-68
2022/07/21 12:17:58;;;;;;;30.23;26.67;;;22.30;99.90;;;;;;5018994;28;20032;-68
2022/07/21 12:20:30;;;;;;;26.10;22.88;;;22.20;99.90;;;;;;5034936;28;20065;-68
2022/07/21 12:22:58;;;;;;;31.73;26.40;;;22.20;99.90;;;;;;5036601;28;20044;-68
2022/07/21 12:25:38;;;;;;;31.50;27.92;;;22.10;99.90;;;;;;5051535;28;20115;-68
2022/07/21 12:28:05;;;;;;;33.50;27.98;;;22.10;99.90;;;;;;5018244;28;20115;-68
2022/07/21 12:30:44;;;;;;;29.25;24.25;;;22.00;99.90;;;;;;5019016;28;20119;-68
2022/07/21 12:33:12;;;;;;;27.55;24.13;;;22.00;99.90;;;;;;5035850;28;20451;-68
2022/07/21 12:35:43;;;;;;;27.80;24.52;;;22.00;99.90;;;;;;5019028;28;20118;-67